Time;durP1;ratioP1;P1;durP2;ratioP2;P2;SDS_P1;SDS_P2;PMS_P1;PMS_P2;Temp;Humidity;BMP_temperature;BMP_pressure;BME280_temperature;BME280_humidity;BME280_pressure;Samples;Min_cycle;Max_cycle;Signal;HPM_P1;HPM_P2
2022/05/25 00:00:46;;;;;;;2.57;1.80;;;;;;;;;;5074482;28;20173;-76
2022/05/25 00:03:12;;;;;;;5.50;2.20;;;;;;;;;;5076519;28;20419;-75
2022/05/25 00:05:38;;;;;;;4.25;2.10;;;;;;;;;;5076698;28;20197;-77
2022/05/25 00:08:05;;;;;;;2.25;2.05;;;;;;;;;;5076659;28;20200;-76
2022/05/25 00:10:31;;;;;;;3.10;1.90;;;;;;;;;;5076578;28;20234;-77
2022/05/25 00:12:57;;;;;;;2.92;2.28;;;;;;;;;;5075975;28;20197;-77
2022/05/25 00:15:23;;;;;;;2.45;2.00;;;;;;;;;;5076284;28;20185;-76
2022/05/25 00:17:50;;;;;;;3.53;2.33;;;;;;;;;;5076344;28;20661;-77
2022/05/25 00:20:18;;;;;;;3.10;1.93;;;;;;;;;;5076261;28;20210;-75
2022/05/25 00:22:51;;;;;;;6.03;1.77;;;;;;;;;;5076193;28;20411;-79
2022/05/25 00:25:19;;;;;;;1.83;1.73;;;;;;;;;;5075941;28;20201;-77
2022/05/25 00:27:45;;;;;;;4.60;2.30;;;;;;;;;;5076196;28;20807;-76
2022/05/25 00:30:12;;;;;;;4.93;2.10;;;;;;;;;;5076224;28;20567;-75
2022/05/25 00:32:38;;;;;;;2.78;1.85;;;;;;;;;;5074627;28;20689;-76
2022/05/25 00:35:06;;;;;;;2.93;2.20;;;;;;;;;;5075507;28;20196;-77
2022/05/25 00:37:32;;;;;;;2.20;2.00;;;;;;;;;;5076068;28;20407;-75
2022/05/25 00:39:58;;;;;;;3.45;2.45;;;;;;;;;;5076084;28;20173;-75
2022/05/25 00:42:24;;;;;;;3.90;2.13;;;;;;;;;;5074799;28;20215;-76
2022/05/25 00:44:50;;;;;;;1.80;1.70;;;;;;;;;;5075585;28;20435;-76
2022/05/25 00:47:21;;;;;;;2.42;2.22;;;;;;;;;;5075673;28;20255;-78
2022/05/25 00:49:47;;;;;;;4.72;2.28;;;;;;;;;;5075885;28;20181;-75
2022/05/25 00:52:14;;;;;;;5.05;2.40;;;;;;;;;;5075643;28;20566;-75
2022/05/25 00:54:43;;;;;;;3.40;2.10;;;;;;;;;;5075606;28;20546;-76
2022/05/25 00:57:11;;;;;;;2.20;2.00;;;;;;;;;;5075808;28;20181;-76
2022/05/25 01:00:04;;;;;;;4.95;2.50;;;;;;;;;;5075648;28;20174;-76
2022/05/25 01:02:30;;;;;;;4.88;2.47;;;;;;;;;;5074645;28;20193;-76
2022/05/25 01:04:56;;;;;;;4.20;2.67;;;;;;;;;;5075142;28;20204;-75
2022/05/25 01:07:38;;;;;;;3.65;2.40;;;;;;;;;;5074118;28;20632;-75
2022/05/25 01:10:08;;;;;;;3.08;2.00;;;;;;;;;;5075487;28;20181;-78
2022/05/25 01:12:37;;;;;;;3.05;2.15;;;;;;;;;;5075008;28;20603;-77
2022/05/25 01:15:21;;;;;;;2.78;2.08;;;;;;;;;;5074933;28;20197;-78
2022/05/25 01:17:57;;;;;;;4.85;2.25;;;;;;;;;;5075141;28;20176;-77
2022/05/25 01:20:23;;;;;;;3.25;2.35;;;;;;;;;;5075172;28;20176;-77
2022/05/25 01:23:08;;;;;;;3.90;2.20;;;;;;;;;;5075051;28;20181;-75
2022/05/25 01:25:39;;;;;;;2.92;2.20;;;;;;;;;;5074872;28;20507;-77
2022/05/25 01:28:12;;;;;;;3.97;2.67;;;;;;;;;;5075138;28;20642;-76
2022/05/25 01:30:39;;;;;;;3.60;2.85;;;;;;;;;;5075209;28;20166;-75
2022/05/25 01:33:05;;;;;;;2.47;2.28;;;;;;;;;;5074592;28;20208;-75
2022/05/25 01:35:44;;;;;;;6.32;2.25;;;;;;;;;;5074823;28;20564;-76
2022/05/25 01:38:24;;;;;;;2.63;2.30;;;;;;;;;;5074813;28;20514;-75
2022/05/25 01:40:50;;;;;;;5.10;2.63;;;;;;;;;;5075105;28;20196;-76
2022/05/25 01:43:19;;;;;;;5.97;2.97;;;;;;;;;;5074578;28;20183;-75
2022/05/25 01:45:50;;;;;;;5.30;2.90;;;;;;;;;;5074749;28;20189;-75
2022/05/25 01:48:17;;;;;;;3.30;3.00;;;;;;;;;;5074832;28;20165;-75
2022/05/25 01:50:56;;;;;;;3.35;2.80;;;;;;;;;;5074828;28;20174;-76
2022/05/25 01:53:24;;;;;;;5.95;2.90;;;;;;;;;;5074200;28;20216;-76
2022/05/25 01:55:55;;;;;;;5.63;3.17;;;;;;;;;;5074762;28;20193;-76
2022/05/25 01:58:22;;;;;;;3.63;2.97;;;;;;;;;;5074531;28;20183;-76
2022/05/25 02:00:49;;;;;;;4.45;2.88;;;;;;;;;;5074445;28;20252;-77
2022/05/25 02:06:26;;;;;;;3.10;2.83;;;;;;;;;;5074639;28;20215;-75
2022/05/25 02:09:15;;;;;;;3.30;2.80;;;;;;;;;;5074502;28;20188;-77
2022/05/25 02:11:44;;;;;;;9.63;3.58;;;;;;;;;;5063964;28;20220;-77
2022/05/25 02:14:28;;;;;;;5.22;2.78;;;;;;;;;;5073711;28;20701;-74
2022/05/25 02:17:13;;;;;;;2.55;2.35;;;;;;;;;;5074084;28;20169;-76
2022/05/25 02:19:39;;;;;;;6.95;2.50;;;;;;;;;;5074025;28;20210;-77
2022/05/25 02:22:09;;;;;;;4.70;2.50;;;;;;;;;;5074257;28;20218;-78
2022/05/25 02:24:41;;;;;;;3.00;2.67;;;;;;;;;;5072986;28;20423;-76
2022/05/25 02:27:14;;;;;;;2.85;2.55;;;;;;;;;;5074067;28;20184;-75
2022/05/25 02:29:42;;;;;;;3.55;2.85;;;;;;;;;;5073879;28;20565;-77
2022/05/25 02:32:12;;;;;;;5.60;2.70;;;;;;;;;;5072346;28;20297;-77
2022/05/25 02:34:39;;;;;;;5.40;3.50;;;;;;;;;;5073500;28;20204;-76
2022/05/25 02:37:06;;;;;;;7.57;2.65;;;;;;;;;;5072582;28;20213;-76
2022/05/25 02:39:32;;;;;;;2.97;2.38;;;;;;;;;;5073706;28;20197;-76
2022/05/25 02:41:58;;;;;;;2.88;2.65;;;;;;;;;;5072629;28;20182;-77
2022/05/25 02:44:24;;;;;;;8.48;3.20;;;;;;;;;;5073137;28;20196;-77
2022/05/25 02:46:51;;;;;;;4.03;3.63;;;;;;;;;;5073605;28;20550;-75
2022/05/25 02:49:17;;;;;;;4.80;3.08;;;;;;;;;;5073597;28;20185;-78
2022/05/25 02:51:43;;;;;;;5.25;2.85;;;;;;;;;;5073509;28;20254;-76
2022/05/25 02:54:10;;;;;;;9.97;2.90;;;;;;;;;;5073002;28;20193;-75
2022/05/25 02:56:36;;;;;;;4.38;2.88;;;;;;;;;;5073713;28;20395;-75
2022/05/25 02:59:02;;;;;;;4.03;2.78;;;;;;;;;;5073537;28;20169;-76
2022/05/25 03:01:28;;;;;;;5.13;3.10;;;;;;;;;;5073565;28;20256;-76
2022/05/25 03:03:55;;;;;;;4.97;2.92;;;;;;;;;;5072008;28;20229;-76
2022/05/25 03:06:21;;;;;;;7.53;3.72;;;;;;;;;;5073442;28;20169;-78
2022/05/25 03:08:47;;;;;;;4.10;2.83;;;;;;;;;;5073438;28;20176;-77
2022/05/25 03:11:13;;;;;;;3.40;3.10;;;;;;;;;;5073314;28;20194;-76
2022/05/25 03:13:41;;;;;;;3.55;3.25;;;;;;;;;;5072945;28;20173;-76
2022/05/25 03:16:08;;;;;;;3.00;2.70;;;;;;;;;;5071968;28;20646;-76
2022/05/25 03:18:34;;;;;;;5.97;2.88;;;;;;;;;;5071793;28;20263;-77
2022/05/25 03:21:00;;;;;;;7.75;3.00;;;;;;;;;;5073246;28;20196;-77
2022/05/25 03:23:26;;;;;;;3.40;2.80;;;;;;;;;;5071558;28;20184;-75
2022/05/25 03:25:52;;;;;;;2.97;2.67;;;;;;;;;;5073066;28;20435;-75
2022/05/25 03:28:18;;;;;;;3.20;2.30;;;;;;;;;;5073095;28;20455;-75
2022/05/25 03:30:46;;;;;;;3.77;3.17;;;;;;;;;;5072840;28;20737;-77
2022/05/25 03:33:13;;;;;;;5.32;3.17;;;;;;;;;;5072536;28;20467;-77
2022/05/25 03:35:39;;;;;;;3.30;2.45;;;;;;;;;;5076234;28;20736;-77
2022/05/25 03:38:05;;;;;;;3.73;2.77;;;;;;;;;;5077275;28;20268;-78
2022/05/25 03:40:32;;;;;;;3.63;2.60;;;;;;;;;;5076956;28;20403;-76
2022/05/25 03:42:58;;;;;;;3.28;2.47;;;;;;;;;;5076578;28;20272;-75
2022/05/25 03:45:25;;;;;;;6.68;2.78;;;;;;;;;;5076942;28;20236;-74
2022/05/25 03:47:51;;;;;;;5.20;2.83;;;;;;;;;;5076969;28;20185;-74
2022/05/25 03:50:20;;;;;;;3.67;2.67;;;;;;;;;;5077194;28;20204;-76
2022/05/25 03:52:46;;;;;;;5.00;2.30;;;;;;;;;;5076817;28;20205;-76
2022/05/25 03:55:13;;;;;;;7.97;2.80;;;;;;;;;;5076481;28;20238;-76
2022/05/25 03:57:39;;;;;;;5.40;2.50;;;;;;;;;;5076940;28;20205;-76
2022/05/25 04:00:06;;;;;;;3.90;2.50;;;;;;;;;;5076770;28;20216;-76
2022/05/25 04:02:32;;;;;;;2.92;2.40;;;;;;;;;;5076766;28;20780;-77
2022/05/25 04:05:11;;;;;;;4.20;2.57;;;;;;;;;;5076204;28;20193;-75
2022/05/25 04:07:41;;;;;;;18.15;3.22;;;;;;;;;;5076675;28;20442;-77
2022/05/25 04:10:08;;;;;;;2.75;2.55;;;;;;;;;;5076531;28;20645;-76
2022/05/25 04:12:34;;;;;;;10.18;3.00;;;;;;;;;;5076527;28;20667;-75
2022/05/25 04:15:00;;;;;;;6.40;3.35;;;;;;;;;;5075995;28;20283;-76
2022/05/25 04:17:26;;;;;;;5.95;2.78;;;;;;;;;;5076421;28;20169;-75
2022/05/25 04:19:52;;;;;;;3.30;3.00;;;;;;;;;;5076406;28;20712;-77
2022/05/25 04:22:18;;;;;;;4.30;3.30;;;;;;;;;;5076048;28;20294;-77
2022/05/25 04:24:44;;;;;;;3.63;3.10;;;;;;;;;;5075771;28;20435;-77
2022/05/25 04:27:12;;;;;;;5.75;3.25;;;;;;;;;;5076036;28;20173;-75
2022/05/25 04:29:38;;;;;;;7.18;4.45;;;;;;;;;;5076156;28;20180;-75
2022/05/25 04:32:06;;;;;;;6.15;3.85;;;;;;;;;;5074619;28;20245;-76
2022/05/25 04:34:32;;;;;;;7.20;3.72;;;;;;;;;;5075719;28;20196;-76
2022/05/25 04:37:48;;;;;;;9.20;4.15;;;;;;;;;;5074672;28;20181;-75
2022/05/25 04:39:44;;;;;;;4.75;3.40;;;;;;;;;;5076040;28;20192;-75
2022/05/25 04:42:10;;;;;;;5.72;3.65;;;;;;;;;;5076185;28;20176;-76
2022/05/25 04:44:36;;;;;;;5.47;4.00;;;;;;;;;;5075572;28;20720;-76
2022/05/25 04:47:02;;;;;;;16.38;5.75;;;;;;;;;;5075190;28;20205;-74
2022/05/25 04:49:28;;;;;;;7.65;3.80;;;;;;;;;;5075725;28;20176;-77
2022/05/25 04:51:54;;;;;;;6.30;3.97;;;;;;;;;;5075933;28;20204;-75
2022/05/25 04:54:20;;;;;;;7.57;4.10;;;;;;;;;;5075361;28;20515;-77
2022/05/25 04:59:31;;;;;;;6.75;4.47;;;;;;;;;;5075811;28;20414;-75
2022/05/25 05:01:59;;;;;;;11.00;5.10;;;;;;;;;;5076240;28;20253;-76
2022/05/25 05:04:26;;;;;;;6.45;4.00;;;;;;;;;;5075327;28;20423;-76
2022/05/25 05:06:52;;;;;;;5.70;4.35;;;;;;;;;;5075788;28;20180;-77
2022/05/25 05:09:18;;;;;;;7.57;4.30;;;;;;;;;;5075352;28;20220;-75
2022/05/25 05:11:45;;;;;;;9.30;4.93;;;;;;;;;;5074190;28;20228;-76
2022/05/25 05:14:10;;;;;;;5.38;4.25;;;;;;;;;;5074972;28;21002;-76
2022/05/25 05:16:36;;;;;;;8.73;4.43;;;;;;;;;;5075487;28;20197;-75
2022/05/25 05:19:03;;;;;;;7.95;4.15;;;;;;;;;;5075079;28;20927;-76
2022/05/25 05:21:29;;;;;;;7.57;3.90;;;;;;;;;;5075031;28;20178;-76
2022/05/25 05:23:55;;;;;;;16.10;4.37;;;;;;;;;;5074753;28;20564;-77
2022/05/25 05:26:21;;;;;;;5.07;3.77;;;;;;;;;;5075163;28;20416;-76
2022/05/25 05:28:49;;;;;;;5.87;4.20;;;;;;;;;;5075106;28;20815;-76
2022/05/25 05:31:15;;;;;;;5.82;3.35;;;;;;;;;;5074766;28;20846;-77
2022/05/25 05:33:42;;;;;;;9.40;4.65;;;;;;;;;;5074494;28;20177;-77
2022/05/25 05:36:08;;;;;;;6.40;4.03;;;;;;;;;;5074857;28;20660;-76
2022/05/25 05:38:37;;;;;;;8.75;4.00;;;;;;;;;;5074903;28;20196;-77
2022/05/25 05:41:03;;;;;;;4.90;3.97;;;;;;;;;;5075074;28;20726;-75
2022/05/25 05:43:29;;;;;;;8.87;3.57;;;;;;;;;;5074432;28;20182;-75
2022/05/25 05:45:55;;;;;;;4.70;3.50;;;;;;;;;;5074447;28;20432;-75
2022/05/25 05:48:27;;;;;;;9.50;3.13;;;;;;;;;;5074509;28;20177;-75
2022/05/25 05:50:56;;;;;;;4.20;3.30;;;;;;;;;;5074677;28;20400;-77
2022/05/25 05:53:26;;;;;;;3.47;2.80;;;;;;;;;;5074292;28;20508;-77
2022/05/25 05:55:52;;;;;;;6.63;2.85;;;;;;;;;;5074574;28;20228;-75
2022/05/25 05:58:19;;;;;;;6.90;2.80;;;;;;;;;;5073354;28;20688;-76
2022/05/25 06:00:45;;;;;;;3.87;2.60;;;;;;;;;;5073245;28;20327;-76
2022/05/25 06:03:12;;;;;;;4.95;2.40;;;;;;;;;;5074020;28;20408;-76
2022/05/25 06:05:38;;;;;;;4.50;2.72;;;;;;;;;;5074401;28;20583;-75
2022/05/25 06:08:18;;;;;;;8.07;4.00;;;;;;;;;;5074251;28;20181;-77
2022/05/25 06:10:44;;;;;;;3.80;2.37;;;;;;;;;;5074252;28;20181;-78
2022/05/25 06:13:11;;;;;;;5.90;2.25;;;;;;;;;;5072681;28;20455;-76
2022/05/25 06:21:08;;;;;;;4.82;1.70;;;;;;;;;;5073412;28;20452;-77
2022/05/25 06:23:34;;;;;;;6.70;1.87;;;;;;;;;;5073553;28;20226;-76
2022/05/25 06:26:00;;;;;;;6.03;1.70;;;;;;;;;;5073808;28;20412;-76
2022/05/25 06:28:26;;;;;;;4.00;1.60;;;;;;;;;;5073874;28;20423;-77
2022/05/25 06:30:53;;;;;;;3.57;1.40;;;;;;;;;;5073933;28;20419;-76
2022/05/25 06:33:20;;;;;;;3.13;1.93;;;;;;;;;;5073287;28;20467;-75
2022/05/25 06:35:45;;;;;;;2.73;1.43;;;;;;;;;;5073504;28;20424;-75
2022/05/25 06:38:11;;;;;;;5.03;1.40;;;;;;;;;;5073466;28;20766;-77
2022/05/25 06:40:37;;;;;;;3.90;1.37;;;;;;;;;;5073966;28;20453;-74
2022/05/25 06:43:03;;;;;;;3.67;1.53;;;;;;;;;;5073457;28;20419;-77
2022/05/25 06:45:30;;;;;;;4.00;1.80;;;;;;;;;;5073809;28;20932;-77
2022/05/25 06:47:56;;;;;;;7.70;1.37;;;;;;;;;;5073560;28;20439;-76
2022/05/25 06:50:22;;;;;;;3.97;1.27;;;;;;;;;;5073564;28;20419;-77
2022/05/25 06:52:48;;;;;;;4.47;1.30;;;;;;;;;;5082090;28;20470;-77
2022/05/25 06:55:14;;;;;;;2.10;1.20;;;;;;;;;;5093428;28;20501;-78
2022/05/25 06:57:42;;;;;;;2.43;1.10;;;;;;;;;;5093744;28;20405;-78
2022/05/25 07:00:09;;;;;;;3.50;1.30;;;;;;;;;;5093398;28;20406;-78
2022/05/25 07:02:35;;;;;;;4.73;1.60;;;;;;;;;;5089706;28;20427;-78
2022/05/25 07:05:02;;;;;;;5.13;1.50;;;;;;;;;;5082454;28;20442;-79
2022/05/25 07:07:28;;;;;;;3.63;1.10;;;;;;;;;;5090565;28;20414;-79
2022/05/25 07:09:54;;;;;;;4.23;1.27;;;;;;;;;;5093352;28;20407;-79
2022/05/25 07:12:20;;;;;;;5.10;1.53;;;;;;;;;;5093320;28;20462;-79
2022/05/25 07:14:46;;;;;;;5.07;1.70;;;;;;;;;;5092997;28;20430;-78
2022/05/25 07:17:12;;;;;;;5.10;1.13;;;;;;;;;;5093697;28;20485;-79
2022/05/25 07:19:38;;;;;;;7.43;1.20;;;;;;;;;;5093655;28;20838;-80
2022/05/25 07:22:11;;;;;;;2.40;1.23;;;;;;;;;;5092103;28;20435;-78
2022/05/25 07:24:37;;;;;;;1.77;0.90;;;;;;;;;;5092727;28;20443;-78
2022/05/25 07:27:04;;;;;;;1.20;0.93;;;;;;;;;;5093586;28;20438;-78
2022/05/25 07:29:30;;;;;;;3.67;1.30;;;;;;;;;;5093246;28;20406;-78
2022/05/25 07:31:58;;;;;;;1.10;0.70;;;;;;;;;;5093035;28;20481;-79
2022/05/25 07:34:25;;;;;;;3.53;1.00;;;;;;;;;;5092596;28;20430;-79
2022/05/25 07:36:54;;;;;;;1.87;0.80;;;;;;;;;;5087039;28;20445;-78
2022/05/25 07:39:22;;;;;;;2.30;0.70;;;;;;;;;;5093092;28;20411;-78
2022/05/25 07:41:50;;;;;;;2.37;0.90;;;;;;;;;;5093168;28;20573;-79
2022/05/25 07:44:18;;;;;;;4.77;1.00;;;;;;;;;;5092549;28;20449;-78
2022/05/25 07:46:44;;;;;;;2.73;0.73;;;;;;;;;;5093119;28;20446;-78
2022/05/25 07:49:10;;;;;;;1.70;0.90;;;;;;;;;;5093011;28;20410;-80
2022/05/25 07:51:36;;;;;;;3.77;0.73;;;;;;;;;;5093092;28;20415;-77
2022/05/25 07:54:03;;;;;;;1.20;0.70;;;;;;;;;;5092696;28;20430;-78
2022/05/25 07:56:33;;;;;;;1.70;0.70;;;;;;;;;;5093052;28;20456;-76
2022/05/25 07:59:00;;;;;;;1.83;0.80;;;;;;;;;;5073600;28;20821;-78
2022/05/25 08:06:58;;;;;;;1.60;0.80;;;;;;;;;;5072895;28;20413;-76
2022/05/25 08:09:24;;;;;;;1.47;0.60;;;;;;;;;;5072759;28;20408;-77
2022/05/25 08:11:50;;;;;;;0.80;0.70;;;;;;;;;;5072655;28;20434;-77
2022/05/25 08:14:16;;;;;;;2.10;0.70;;;;;;;;;;5072351;28;20520;-77
2022/05/25 08:16:43;;;;;;;1.50;0.73;;;;;;;;;;5072541;28;20960;-78
2022/05/25 08:19:09;;;;;;;1.80;0.60;;;;;;;;;;5072755;28;20798;-76
2022/05/25 08:21:35;;;;;;;1.77;0.67;;;;;;;;;;5073978;28;20406;-76
2022/05/25 08:24:01;;;;;;;3.33;0.80;;;;;;;;;;5075915;28;20785;-77
2022/05/25 08:26:27;;;;;;;0.63;0.50;;;;;;;;;;5075045;28;20407;-76
2022/05/25 08:28:53;;;;;;;1.00;0.57;;;;;;;;;;5076117;28;20419;-76
2022/05/25 08:31:19;;;;;;;3.07;0.70;;;;;;;;;;5076214;28;20755;-75
2022/05/25 08:33:45;;;;;;;6.83;0.67;;;;;;;;;;5075911;28;20438;-75
2022/05/25 08:36:11;;;;;;;0.93;0.67;;;;;;;;;;5074829;28;20406;-76
2022/05/25 08:38:37;;;;;;;4.70;0.70;;;;;;;;;;5082324;28;20395;-78
2022/05/25 08:41:03;;;;;;;1.00;0.60;;;;;;;;;;5090368;28;20511;-77
2022/05/25 08:43:41;;;;;;;5.03;0.60;;;;;;;;;;5095988;28;20539;-76
2022/05/25 08:46:13;;;;;;;0.93;0.60;;;;;;;;;;5095004;28;20777;-77
2022/05/25 08:48:40;;;;;;;1.10;0.60;;;;;;;;;;5096198;28;20509;-76
2022/05/25 08:51:10;;;;;;;1.83;0.57;;;;;;;;;;5096047;28;20745;-76
2022/05/25 08:53:38;;;;;;;3.97;0.80;;;;;;;;;;5095851;28;20439;-75
2022/05/25 08:56:33;;;;;;;2.00;0.70;;;;;;;;;;5094721;28;20422;-77
2022/05/25 08:59:01;;;;;;;0.93;0.60;;;;;;;;;;5095797;28;20378;-76
2022/05/25 09:01:34;;;;;;;1.73;0.87;;;;;;;;;;5094351;28;20687;-77
2022/05/25 09:04:18;;;;;;;1.43;0.50;;;;;;;;;;5095668;28;20419;-76
2022/05/25 09:07:03;;;;;;;4.73;0.87;;;;;;;;;;5096037;28;20381;-76
2022/05/25 09:09:37;;;;;;;2.07;0.70;;;;;;;;;;5095799;28;20405;-77
2022/05/25 09:12:07;;;;;;;2.07;0.70;;;;;;;;;;5095632;28;20461;-76
2022/05/25 09:14:42;;;;;;;1.13;0.80;;;;;;;;;;5095270;28;20393;-76
2022/05/25 09:17:12;;;;;;;3.60;0.63;;;;;;;;;;5095876;28;20567;-75
2022/05/25 09:19:40;;;;;;;1.20;0.70;;;;;;;;;;5095712;28;20447;-77
2022/05/25 09:22:08;;;;;;;1.33;0.40;;;;;;;;;;5095671;28;20414;-77
2022/05/25 09:24:35;;;;;;;1.67;0.57;;;;;;;;;;5095138;28;20459;-76
2022/05/25 09:27:02;;;;;;;1.47;0.50;;;;;;;;;;5095172;28;20402;-76
2022/05/25 09:29:28;;;;;;;1.97;0.60;;;;;;;;;;5095296;28;20491;-76
2022/05/25 09:31:58;;;;;;;4.73;0.77;;;;;;;;;;5094954;28;20465;-75
2022/05/25 09:34:30;;;;;;;1.23;0.73;;;;;;;;;;5094958;28;20491;-74
2022/05/25 09:37:08;;;;;;;3.53;1.53;;;;;;;;;;5095203;28;20403;-76
2022/05/25 09:39:36;;;;;;;1.50;0.60;;;;;;;;;;5095064;28;20406;-75
2022/05/25 09:42:06;;;;;;;0.97;0.60;;;;;;;;;;5095153;28;20464;-75
2022/05/25 09:44:32;;;;;;;0.70;0.50;;;;;;;;;;5094839;28;20860;-76
2022/05/25 09:47:04;;;;;;;1.57;0.60;;;;;;;;;;5095129;28;20867;-75
2022/05/25 09:49:35;;;;;;;1.10;0.60;;;;;;;;;;5094819;28;20791;-75
2022/05/25 09:52:04;;;;;;;1.60;0.67;;;;;;;;;;5094993;28;20480;-75
2022/05/25 09:54:34;;;;;;;5.80;0.80;;;;;;;;;;5094549;28;20788;-74
2022/05/25 09:57:07;;;;;;;1.10;0.60;;;;;;;;;;5094993;28;20422;-76
2022/05/25 09:59:39;;;;;;;2.60;0.60;;;;;;;;;;5093648;28;20997;-77
2022/05/25 10:02:21;;;;;;;1.63;0.70;;;;;;;;;;5076135;28;20421;-75
2022/05/25 10:04:55;;;;;;;7.67;0.70;;;;;;;;;;5074290;28;20848;-76
2022/05/25 10:07:27;;;;;;;1.20;0.53;;;;;;;;;;5074739;28;20400;-75
2022/05/25 10:09:53;;;;;;;1.10;0.60;;;;;;;;;;5074638;28;20813;-77
2022/05/25 10:12:26;;;;;;;0.80;0.50;;;;;;;;;;5074453;28;20455;-77
2022/05/25 10:14:57;;;;;;;1.50;0.53;;;;;;;;;;5073980;28;20421;-76
2022/05/25 10:17:43;;;;;;;1.20;0.60;;;;;;;;;;5073911;28;20407;-76
2022/05/25 10:20:27;;;;;;;2.40;0.70;;;;;;;;;;5073856;28;20417;-75
2022/05/25 10:23:23;;;;;;;1.70;0.60;;;;;;;;;;5073885;28;20446;-76
2022/05/25 10:25:54;;;;;;;4.87;0.80;;;;;;;;;;5065129;28;20449;-75
2022/05/25 10:28:52;;;;;;;0.87;0.53;;;;;;;;;;5074191;28;20506;-77
2022/05/25 10:37:01;;;;;;;1.20;0.60;;;;;;;;;;5074003;28;20620;-77
2022/05/25 10:39:29;;;;;;;3.47;0.67;;;;;;;;;;5073742;28;20895;-76
2022/05/25 10:41:59;;;;;;;0.93;0.50;;;;;;;;;;5073537;28;20413;-77
2022/05/25 10:44:26;;;;;;;1.87;1.07;;;;;;;;;;5072906;28;20565;-75
2022/05/25 10:46:53;;;;;;;0.60;0.50;;;;;;;;;;5073664;28;21068;-76
2022/05/25 10:49:19;;;;;;;1.17;0.63;;;;;;;;;;5072521;28;20412;-75
2022/05/25 10:51:51;;;;;;;1.33;0.60;;;;;;;;;;5073628;28;20921;-75
2022/05/25 10:54:52;;;;;;;1.57;0.50;;;;;;;;;;5073216;28;20433;-77
2022/05/25 10:57:21;;;;;;;4.20;0.70;;;;;;;;;;5073656;28;21030;-77
2022/05/25 11:00:03;;;;;;;1.60;0.80;;;;;;;;;;5073646;28;20460;-77
2022/05/25 11:02:32;;;;;;;1.23;0.70;;;;;;;;;;5079554;28;20412;-75
2022/05/25 11:05:14;;;;;;;4.30;0.70;;;;;;;;;;5093183;28;20432;-75
2022/05/25 11:07:41;;;;;;;0.80;0.70;;;;;;;;;;5093866;28;20414;-75
2022/05/25 11:10:16;;;;;;;1.20;0.50;;;;;;;;;;5088224;28;20419;-77
2022/05/25 11:12:48;;;;;;;2.77;0.73;;;;;;;;;;5073348;28;20553;-75
2022/05/25 11:15:27;;;;;;;1.13;0.60;;;;;;;;;;5072845;28;20426;-75
2022/05/25 11:17:56;;;;;;;0.80;0.70;;;;;;;;;;5073394;28;20399;-77
2022/05/25 11:20:34;;;;;;;1.90;0.60;;;;;;;;;;5073295;28;20494;-75
2022/05/25 11:23:05;;;;;;;1.80;0.63;;;;;;;;;;5073177;28;20412;-78
2022/05/25 11:25:40;;;;;;;1.67;0.70;;;;;;;;;;5073155;28;20432;-75
2022/05/25 11:28:13;;;;;;;1.63;0.70;;;;;;;;;;5073038;28;20504;-74
2022/05/25 11:30:45;;;;;;;3.17;0.80;;;;;;;;;;5073205;28;20553;-75
2022/05/25 11:33:23;;;;;;;1.23;0.80;;;;;;;;;;5072779;28;20576;-75
2022/05/25 11:35:49;;;;;;;0.70;0.60;;;;;;;;;;5072963;28;20561;-75
2022/05/25 11:38:19;;;;;;;0.83;0.60;;;;;;;;;;5072925;28;20403;-75
2022/05/25 11:40:54;;;;;;;2.70;0.60;;;;;;;;;;5072983;28;20399;-77
2022/05/25 11:43:39;;;;;;;2.07;0.70;;;;;;;;;;5072696;28;20472;-75
2022/05/25 11:46:08;;;;;;;1.20;0.70;;;;;;;;;;5072885;28;20770;-75
2022/05/25 11:48:45;;;;;;;3.37;0.83;;;;;;;;;;5072696;28;20407;-74
2022/05/25 11:51:30;;;;;;;1.53;0.67;;;;;;;;;;5073250;28;20759;-75
2022/05/25 11:54:02;;;;;;;1.97;0.60;;;;;;;;;;5072499;28;20435;-73
2022/05/25 11:56:36;;;;;;;4.90;0.70;;;;;;;;;;5073000;28;20464;-75
2022/05/25 11:59:11;;;;;;;2.37;0.60;;;;;;;;;;5076968;28;20410;-74
2022/05/25 12:01:53;;;;;;;1.10;0.70;;;;;;;;;;5076888;28;20411;-74
2022/05/25 12:04:28;;;;;;;1.23;0.70;;;;;;;;;;5074915;28;20800;-74
2022/05/25 12:06:57;;;;;;;6.37;0.97;;;;;;;;;;5076571;28;20418;-76
2022/05/25 12:09:35;;;;;;;1.63;0.70;;;;;;;;;;5076629;28;20998;-74
2022/05/25 12:12:12;;;;;;;4.13;0.80;;;;;;;;;;5078442;28;20553;-74
2022/05/25 12:14:58;;;;;;;2.13;0.90;;;;;;;;;;5088541;28;20437;-75
2022/05/25 12:17:33;;;;;;;4.47;0.80;;;;;;;;;;5096705;28;20449;-75
2022/05/25 12:20:01;;;;;;;1.53;0.70;;;;;;;;;;5096766;28;20402;-75
2022/05/25 12:22:31;;;;;;;2.60;0.80;;;;;;;;;;5096603;28;20437;-78
2022/05/25 12:24:58;;;;;;;1.27;0.60;;;;;;;;;;5096276;28;20426;-78
2022/05/25 12:27:32;;;;;;;4.10;0.93;;;;;;;;;;5096714;28;20417;-77
2022/05/25 12:30:03;;;;;;;1.20;0.70;;;;;;;;;;5096708;28;20464;-77
2022/05/25 12:32:29;;;;;;;0.90;0.63;;;;;;;;;;5093116;28;20462;-76
2022/05/25 12:34:55;;;;;;;1.23;0.80;;;;;;;;;;5092911;28;20864;-77
2022/05/25 12:37:28;;;;;;;0.80;0.60;;;;;;;;;;5083586;28;20451;-76
2022/05/25 12:39:56;;;;;;;1.67;0.60;;;;;;;;;;5087103;28;20406;-76
2022/05/25 12:42:22;;;;;;;1.73;0.80;;;;;;;;;;5092606;28;20469;-75
2022/05/25 12:50:34;;;;;;;0.80;0.60;;;;;;;;;;5076673;28;20419;-77
2022/05/25 12:53:19;;;;;;;7.93;0.80;;;;;;;;;;5096424;28;20511;-74
2022/05/25 12:55:53;;;;;;;1.23;0.77;;;;;;;;;;5076037;28;20422;-74
2022/05/25 12:58:31;;;;;;;1.57;0.60;;;;;;;;;;5075989;28;20414;-77
2022/05/25 13:01:01;;;;;;;1.63;0.50;;;;;;;;;;5075549;28;20411;-75
2022/05/25 13:04:02;;;;;;;1.80;0.67;;;;;;;;;;5080280;28;20431;-75
2022/05/25 13:06:38;;;;;;;4.00;0.77;;;;;;;;;;5012957;28;20564;-74
2022/05/25 13:09:05;;;;;;;2.90;0.50;;;;;;;;;;5066908;28;20423;-75
2022/05/25 13:11:43;;;;;;;3.17;0.83;;;;;;;;;;5090134;28;20483;-75
2022/05/25 13:14:22;;;;;;;1.70;0.93;;;;;;;;;;5095298;28;20455;-77
2022/05/25 13:16:48;;;;;;;1.40;0.60;;;;;;;;;;5084148;28;20979;-75
2022/05/25 13:19:37;;;;;;;1.53;0.80;;;;;;;;;;5075247;28;20415;-74
2022/05/25 13:22:15;;;;;;;2.10;1.10;;;;;;;;;;5082433;28;20414;-76
2022/05/25 13:25:05;;;;;;;2.93;0.70;;;;;;;;;;5093827;28;21041;-76
2022/05/25 13:27:37;;;;;;;1.57;0.50;;;;;;;;;;5089508;28;20506;-75
2022/05/25 13:30:23;;;;;;;2.53;0.80;;;;;;;;;;5075268;28;20416;-76
2022/05/25 13:32:57;;;;;;;1.93;0.80;;;;;;;;;;5078438;28;20469;-75
2022/05/25 13:35:23;;;;;;;2.97;0.93;;;;;;;;;;5074886;28;20427;-75
2022/05/25 13:38:05;;;;;;;1.47;0.80;;;;;;;;;;5081341;28;20592;-77
2022/05/25 13:40:36;;;;;;;5.67;0.90;;;;;;;;;;5074934;28;20404;-74
2022/05/25 13:43:02;;;;;;;7.63;0.77;;;;;;;;;;5090514;28;20794;-76
2022/05/25 13:45:30;;;;;;;5.33;0.90;;;;;;;;;;5083452;28;20434;-76
2022/05/25 13:47:57;;;;;;;0.90;0.70;;;;;;;;;;5094321;28;20393;-78
2022/05/25 13:50:36;;;;;;;2.87;0.83;;;;;;;;;;5086872;28;20431;-76
2022/05/25 13:53:05;;;;;;;1.20;0.80;;;;;;;;;;5083532;28;20470;-76
2022/05/25 13:55:35;;;;;;;1.10;0.73;;;;;;;;;;5074650;28;20496;-76
2022/05/25 13:58:07;;;;;;;1.60;0.80;;;;;;;;;;5074631;28;20416;-76
2022/05/25 14:00:48;;;;;;;2.43;0.80;;;;;;;;;;5078326;28;20988;-75
2022/05/25 14:03:17;;;;;;;1.03;0.70;;;;;;;;;;5090302;28;20418;-76
2022/05/25 14:05:46;;;;;;;1.27;1.13;;;;;;;;;;5091450;28;20416;-75
2022/05/25 14:11:27;;;;;;;2.27;0.93;;;;;;;;;;5079075;28;20430;-75
2022/05/25 14:13:54;;;;;;;1.00;0.70;;;;;;;;;;5092687;28;20470;-75
2022/05/25 14:16:24;;;;;;;2.17;0.80;;;;;;;;;;5088134;28;20407;-74
2022/05/25 14:18:55;;;;;;;3.13;0.80;;;;;;;;;;5073581;28;20411;-76
2022/05/25 14:21:36;;;;;;;3.20;1.00;;;;;;;;;;5074154;28;20955;-74
2022/05/25 14:24:28;;;;;;;2.60;0.67;;;;;;;;;;5082037;28;20471;-76
2022/05/25 14:26:56;;;;;;;2.60;0.80;;;;;;;;;;5090416;28;20500;-75
2022/05/25 14:29:23;;;;;;;1.17;0.60;;;;;;;;;;5079005;28;20427;-76
2022/05/25 14:31:54;;;;;;;1.97;0.70;;;;;;;;;;5082982;28;20488;-75
2022/05/25 14:34:22;;;;;;;2.53;1.13;;;;;;;;;;5073604;28;20435;-77
2022/05/25 14:36:54;;;;;;;1.63;0.60;;;;;;;;;;5084982;28;20415;-74
2022/05/25 14:39:28;;;;;;;5.37;0.70;;;;;;;;;;5073713;28;20422;-75
2022/05/25 14:42:03;;;;;;;1.40;0.80;;;;;;;;;;5085021;28;20433;-76
2022/05/25 14:44:47;;;;;;;4.07;0.83;;;;;;;;;;5073140;28;20445;-76
2022/05/25 14:47:31;;;;;;;1.00;0.60;;;;;;;;;;5075014;28;20407;-75
2022/05/25 14:50:06;;;;;;;1.13;0.70;;;;;;;;;;5076071;28;20977;-77
2022/05/25 14:52:32;;;;;;;5.70;0.90;;;;;;;;;;5073756;28;20490;-77
2022/05/25 14:55:25;;;;;;;3.37;0.70;;;;;;;;;;5074233;28;20838;-78
2022/05/25 14:58:10;;;;;;;1.97;0.80;;;;;;;;;;5049323;28;20921;-75
2022/05/25 15:00:37;;;;;;;3.63;0.90;;;;;;;;;;5076785;28;20464;-77
2022/05/25 15:03:04;;;;;;;3.67;0.90;;;;;;;;;;5074598;28;20471;-76
2022/05/25 15:05:41;;;;;;;3.93;0.90;;;;;;;;;;5073631;28;20432;-77
2022/05/25 15:08:19;;;;;;;12.13;1.00;;;;;;;;;;5070461;28;20434;-76
2022/05/25 15:10:44;;;;;;;3.20;0.80;;;;;;;;;;5091653;28;20418;-76
2022/05/25 15:13:22;;;;;;;2.70;0.90;;;;;;;;;;5081335;28;20943;-75
2022/05/25 15:18:38;;;;;;;4.50;0.80;;;;;;;;;;5089455;28;20409;-75
2022/05/25 15:21:18;;;;;;;2.60;0.80;;;;;;;;;;5084603;28;20506;-78
2022/05/25 15:23:47;;;;;;;1.43;0.80;;;;;;;;;;5075840;28;20403;-77
2022/05/25 15:26:20;;;;;;;1.90;0.90;;;;;;;;;;5076652;28;20537;-74
2022/05/25 15:28:46;;;;;;;3.73;0.90;;;;;;;;;;5073514;28;20930;-77
2022/05/25 15:31:14;;;;;;;2.43;1.07;;;;;;;;;;5073577;28;20466;-78
2022/05/25 15:33:42;;;;;;;2.27;0.70;;;;;;;;;;5086137;28;20450;-76
2022/05/25 15:36:19;;;;;;;1.87;0.77;;;;;;;;;;5092446;28;20410;-75